createdAt,value
2023-03-13T00:01:34.922Z,1.27
2023-03-13T00:04:04.138Z,1.20
2023-03-13T00:06:35.696Z,0.82
2023-03-13T00:09:07.561Z,1.20
2023-03-13T00:11:37.258Z,0.80
2023-03-13T00:14:08.414Z,1.33
2023-03-13T00:16:37.769Z,1.13
2023-03-13T00:19:08.407Z,1.10
2023-03-13T00:21:38.907Z,1.00
2023-03-13T00:24:12.060Z,1.05
2023-03-13T00:26:41.135Z,1.23
2023-03-13T00:29:10.088Z,1.10
2023-03-13T00:31:39.054Z,0.90
2023-03-13T00:34:08.022Z,1.10
2023-03-13T00:36:39.595Z,0.85
2023-03-13T00:39:09.931Z,1.05
2023-03-13T00:41:39.353Z,0.90
2023-03-13T00:44:08.539Z,1.00
2023-03-13T00:46:38.328Z,1.10
2023-03-13T00:49:07.874Z,1.10
2023-03-13T00:51:36.960Z,1.20
2023-03-13T00:54:06.069Z,0.73
2023-03-13T00:56:37.268Z,1.00
2023-03-13T00:59:06.489Z,1.00
2023-03-13T01:01:37.197Z,1.05
2023-03-13T01:04:07.889Z,0.80
2023-03-13T01:06:40.750Z,0.95
2023-03-13T01:09:11.696Z,1.05
2023-03-13T01:11:43.201Z,0.80
2023-03-13T01:14:15.815Z,0.70
2023-03-13T01:16:45.023Z,0.90
2023-03-13T01:19:15.743Z,0.90
2023-03-13T01:21:46.421Z,0.90
2023-03-13T01:24:17.000Z,1.00
2023-03-13T01:26:48.129Z,0.80
2023-03-13T01:29:19.010Z,0.80
2023-03-13T01:31:48.420Z,1.08
2023-03-13T01:34:17.515Z,1.20
2023-03-13T01:36:50.698Z,0.85
2023-03-13T01:39:19.910Z,0.88
2023-03-13T01:41:50.282Z,0.98
2023-03-13T01:44:23.559Z,0.88
2023-03-13T01:46:53.591Z,1.00
2023-03-13T01:52:25.885Z,0.90
2023-03-13T01:55:05.203Z,1.02
2023-03-13T01:57:42.370Z,0.73
2023-03-13T02:00:16.701Z,0.90
2023-03-13T02:02:50.289Z,1.20
2023-03-13T02:05:21.904Z,1.00
2023-03-13T02:07:56.137Z,1.73
2023-03-13T02:10:27.749Z,1.00
2023-03-13T02:13:02.811Z,1.00
2023-03-13T02:15:32.695Z,0.95
2023-03-13T02:18:01.932Z,1.60
2023-03-13T02:20:31.301Z,1.30
2023-03-13T02:23:04.977Z,1.33
2023-03-13T02:25:43.238Z,1.23
2023-03-13T02:28:17.613Z,1.27
2023-03-13T02:30:48.545Z,1.70
2023-03-13T02:33:19.509Z,1.58
2023-03-13T02:35:49.917Z,1.67
2023-03-13T02:38:25.530Z,1.85
2023-03-13T02:40:58.084Z,2.20
2023-03-13T02:43:32.079Z,1.90
2023-03-13T02:46:03.154Z,2.30
2023-03-13T02:48:35.619Z,2.38
2023-03-13T02:51:10.388Z,2.63
2023-03-13T02:53:39.709Z,2.58
2023-03-13T02:56:10.298Z,3.15
2023-03-13T02:58:49.709Z,2.47
2023-03-13T03:01:23.169Z,2.97
2023-03-13T03:03:52.763Z,3.42
2023-03-13T03:06:22.386Z,2.40
2023-03-13T03:08:52.639Z,3.45
2023-03-13T03:11:23.255Z,3.60
2023-03-13T03:13:58.588Z,3.17
2023-03-13T03:16:29.536Z,3.28
2023-03-13T03:18:59.596Z,4.25
2023-03-13T03:21:29.091Z,4.20
2023-03-13T03:23:58.232Z,5.57
2023-03-13T03:26:29.117Z,5.97
2023-03-13T03:28:58.451Z,5.97
2023-03-13T03:31:28.023Z,5.43
2023-03-13T03:33:58.778Z,8.65
2023-03-13T03:36:28.379Z,6.93
2023-03-13T03:38:57.446Z,9.50
2023-03-13T03:41:30.469Z,7.90
2023-03-13T03:44:01.219Z,9.80
2023-03-13T03:46:40.937Z,10.07
2023-03-13T03:49:10.021Z,9.32
2023-03-13T03:51:39.167Z,10.15
2023-03-13T03:54:08.531Z,9.23
2023-03-13T03:56:38.963Z,9.98
2023-03-13T03:59:08.067Z,8.68
2023-03-13T04:01:45.706Z,6.68
2023-03-13T04:04:16.776Z,7.00
2023-03-13T04:06:49.533Z,6.65
2023-03-13T04:09:18.693Z,4.68
2023-03-13T04:11:49.114Z,4.20
2023-03-13T04:14:18.335Z,3.60
2023-03-13T04:16:47.942Z,3.55
2023-03-13T04:19:17.928Z,3.25
2023-03-13T04:21:47.484Z,3.75
2023-03-13T04:24:19.673Z,2.55
2023-03-13T04:26:50.002Z,3.28
2023-03-13T04:29:19.020Z,2.30
2023-03-13T04:32:05.264Z,2.88
2023-03-13T04:35:03.377Z,2.80
2023-03-13T04:37:49.126Z,2.40
2023-03-13T04:43:37.120Z,2.15
2023-03-13T04:46:25.125Z,1.52
2023-03-13T04:49:26.729Z,2.00
2023-03-13T04:52:18.575Z,1.40
2023-03-13T04:55:11.137Z,1.90
2023-03-13T04:57:43.138Z,1.77
2023-03-13T05:00:26.544Z,1.30
2023-03-13T05:03:11.660Z,1.90
2023-03-13T05:06:03.430Z,1.20
2023-03-13T05:08:55.878Z,1.33
2023-03-13T05:11:51.676Z,1.88
2023-03-13T05:14:30.734Z,1.63
2023-03-13T05:17:30.262Z,1.20
2023-03-13T05:20:28.290Z,0.90
2023-03-13T05:23:16.165Z,0.98
2023-03-13T05:28:44.087Z,1.20
2023-03-13T05:31:41.940Z,0.85
2023-03-13T05:34:28.496Z,1.85
2023-03-13T05:37:00.424Z,1.60
2023-03-13T05:39:53.097Z,1.45
2023-03-13T05:42:34.938Z,1.77
2023-03-13T05:45:30.161Z,1.13
2023-03-13T05:48:15.107Z,1.77
2023-03-13T05:51:07.779Z,1.20
2023-03-13T05:53:37.060Z,1.15
2023-03-13T05:56:38.404Z,1.15
2023-03-13T05:59:30.598Z,1.40
2023-03-13T06:02:16.783Z,1.73
2023-03-13T06:04:48.462Z,1.27
2023-03-13T06:07:19.095Z,1.80
2023-03-13T06:09:48.169Z,1.20
2023-03-13T06:12:17.261Z,1.40
2023-03-13T06:14:47.290Z,1.40
2023-03-13T06:17:16.792Z,1.63
2023-03-13T06:19:47.560Z,1.80
2023-03-13T06:22:19.332Z,1.52
2023-03-13T06:24:49.794Z,1.08
2023-03-13T06:27:19.003Z,1.65
2023-03-13T06:29:48.206Z,1.40
2023-03-13T06:32:17.478Z,1.40
2023-03-13T06:34:46.482Z,1.30
2023-03-13T06:37:15.426Z,1.67
2023-03-13T06:39:45.855Z,1.73
2023-03-13T06:42:14.868Z,1.23
2023-03-13T06:44:44.878Z,1.92
2023-03-13T06:47:15.544Z,2.00
2023-03-13T06:49:44.785Z,1.73
2023-03-13T06:52:14.079Z,1.30
2023-03-13T06:54:43.137Z,1.33
2023-03-13T06:57:13.411Z,1.42
2023-03-13T06:59:42.379Z,1.33
2023-03-13T07:02:12.760Z,1.65
2023-03-13T07:04:43.611Z,1.50
2023-03-13T07:07:25.832Z,1.50
2023-03-13T07:10:00.231Z,1.40
2023-03-13T07:12:30.762Z,1.50
2023-03-13T07:14:59.643Z,1.00
2023-03-13T07:17:28.714Z,1.08
2023-03-13T07:19:57.753Z,1.70
2023-03-13T07:22:26.783Z,1.90
2023-03-13T07:24:56.084Z,1.35
2023-03-13T07:27:25.258Z,1.50
2023-03-13T07:29:55.719Z,2.28
2023-03-13T07:32:25.111Z,1.77
2023-03-13T07:34:54.072Z,1.58
2023-03-13T07:37:24.322Z,1.65
2023-03-13T07:39:57.449Z,1.52
2023-03-13T07:42:27.412Z,1.77
2023-03-13T07:44:57.865Z,1.10
2023-03-13T07:47:26.757Z,1.23
2023-03-13T07:49:55.872Z,1.27
2023-03-13T07:52:26.608Z,1.45
2023-03-13T07:54:55.827Z,1.65
2023-03-13T07:57:24.897Z,1.02
2023-03-13T07:59:53.818Z,1.75
2023-03-13T08:02:24.319Z,1.52
2023-03-13T08:04:54.240Z,1.33
2023-03-13T08:07:23.257Z,1.60
2023-03-13T08:09:52.187Z,1.20
2023-03-13T08:12:21.161Z,1.80
2023-03-13T08:14:50.102Z,1.60
2023-03-13T08:17:19.071Z,1.73
2023-03-13T08:19:49.358Z,1.50
2023-03-13T08:22:18.373Z,1.88
2023-03-13T08:24:47.309Z,1.25
2023-03-13T08:27:17.237Z,1.17
2023-03-13T08:29:46.222Z,1.58
2023-03-13T08:32:15.329Z,1.52
2023-03-13T08:35:11.146Z,1.17
2023-03-13T08:37:40.200Z,1.50
2023-03-13T08:40:13.881Z,1.23
2023-03-13T08:42:42.879Z,1.75
2023-03-13T08:45:12.418Z,1.65
2023-03-13T08:47:41.448Z,1.15
2023-03-13T08:50:13.183Z,1.58
2023-03-13T08:52:42.166Z,1.27
2023-03-13T08:55:11.589Z,1.05
2023-03-13T08:57:40.531Z,1.25
2023-03-13T09:00:11.267Z,1.10
2023-03-13T09:02:40.277Z,1.00
2023-03-13T09:05:09.750Z,1.10
2023-03-13T09:07:40.283Z,1.10
2023-03-13T09:10:11.418Z,1.40
2023-03-13T09:12:41.301Z,1.98
2023-03-13T09:15:11.449Z,2.20
2023-03-13T09:17:40.437Z,1.80
2023-03-13T09:20:11.585Z,1.80
2023-03-13T09:22:41.954Z,1.60
2023-03-13T09:25:11.426Z,1.00
2023-03-13T09:27:40.611Z,1.10
2023-03-13T09:30:10.834Z,1.30
2023-03-13T09:32:39.911Z,1.00
2023-03-13T09:35:09.454Z,1.10
2023-03-13T09:37:38.451Z,1.40
2023-03-13T09:40:16.052Z,0.90
2023-03-13T09:42:50.216Z,1.20
2023-03-13T09:45:24.085Z,1.13
2023-03-13T09:47:58.097Z,0.90
2023-03-13T09:50:30.411Z,1.05
2023-03-13T09:53:05.221Z,0.88
2023-03-13T09:55:38.712Z,1.00
2023-03-13T09:58:16.583Z,1.10
2023-03-13T10:00:49.916Z,1.23
2023-03-13T10:03:23.896Z,1.30
2023-03-13T10:05:56.943Z,1.00
2023-03-13T10:08:27.449Z,1.00
2023-03-13T10:11:03.859Z,0.90
2023-03-13T10:13:39.477Z,2.03
2023-03-13T10:16:11.610Z,1.80
2023-03-13T10:18:41.445Z,1.92
2023-03-13T10:21:17.962Z,2.33
2023-03-13T10:23:53.371Z,1.15
2023-03-13T10:26:29.150Z,1.20
2023-03-13T10:28:59.167Z,2.63
2023-03-13T10:31:33.398Z,2.00
2023-03-13T10:34:08.980Z,2.33
2023-03-13T10:36:43.028Z,2.08
2023-03-13T10:39:17.271Z,1.50
2023-03-13T10:41:49.450Z,1.37
2023-03-13T10:44:21.367Z,1.33
2023-03-13T10:46:52.489Z,1.35
2023-03-13T10:49:24.050Z,1.38
2023-03-13T10:51:54.733Z,1.40
2023-03-13T10:54:25.447Z,1.17
2023-03-13T10:57:11.583Z,1.38
2023-03-13T10:59:44.987Z,1.00
2023-03-13T11:02:26.437Z,1.65
2023-03-13T11:04:55.571Z,1.42
2023-03-13T11:07:30.271Z,1.15
2023-03-13T11:10:00.849Z,1.10
2023-03-13T11:12:35.920Z,1.83
2023-03-13T11:15:14.591Z,1.48
2023-03-13T11:17:44.136Z,1.75
2023-03-13T11:20:26.429Z,1.30
2023-03-13T11:23:06.640Z,1.60
2023-03-13T11:25:42.711Z,1.52
2023-03-13T11:28:24.457Z,1.38
2023-03-13T11:31:07.894Z,1.60
2023-03-13T11:33:53.624Z,1.45
2023-03-13T11:36:28.885Z,1.33
2023-03-13T11:39:16.295Z,1.88
2023-03-13T11:41:57.251Z,1.67
2023-03-13T11:44:46.041Z,2.17
2023-03-13T11:47:27.814Z,1.48
2023-03-13T11:50:25.192Z,1.77
2023-03-13T11:53:10.191Z,1.52
2023-03-13T11:56:00.650Z,1.77
2023-03-13T11:59:04.046Z,1.73
2023-03-13T12:01:39.141Z,1.52
2023-03-13T12:04:18.815Z,1.13
2023-03-13T12:06:52.644Z,1.48
2023-03-13T12:09:28.395Z,1.77
2023-03-13T12:12:03.846Z,1.42
2023-03-13T12:14:38.199Z,1.33
2023-03-13T12:17:13.733Z,1.38
2023-03-13T12:19:49.231Z,1.60
2023-03-13T12:22:24.389Z,2.30
2023-03-13T12:27:32.838Z,1.88
2023-03-13T12:30:09.032Z,1.63
2023-03-13T12:32:44.489Z,1.70
2023-03-13T12:35:23.119Z,1.83
2023-03-13T12:37:56.476Z,1.60
2023-03-13T12:40:30.649Z,1.98
2023-03-13T12:43:05.923Z,2.57
2023-03-13T12:45:38.698Z,2.47
2023-03-13T12:48:36.586Z,2.75
2023-03-13T12:51:29.337Z,1.70
2023-03-13T12:54:37.958Z,1.80
2023-03-13T12:57:21.806Z,2.17
2023-03-13T12:59:54.905Z,1.70
2023-03-13T13:02:26.630Z,2.05
2023-03-13T13:04:59.211Z,2.72
2023-03-13T13:07:30.622Z,2.00
2023-03-13T13:10:17.057Z,2.25
2023-03-13T13:12:47.465Z,2.10
2023-03-13T13:15:21.646Z,1.70
2023-03-13T13:18:02.868Z,1.73
2023-03-13T13:20:46.247Z,1.83
2023-03-13T13:23:37.601Z,1.50
2023-03-13T13:26:49.535Z,1.23
2023-03-13T13:29:58.014Z,1.02
2023-03-13T13:32:42.326Z,1.25
2023-03-13T13:35:32.118Z,1.40
2023-03-13T13:38:40.526Z,1.20
2023-03-13T13:41:28.395Z,1.50
2023-03-13T13:44:21.365Z,1.52
2023-03-13T13:46:50.941Z,1.35
2023-03-13T13:49:21.651Z,1.35
2023-03-13T13:52:25.996Z,1.45
2023-03-13T13:54:58.460Z,1.52
2023-03-13T13:57:31.221Z,1.02
2023-03-13T14:00:17.042Z,1.35
2023-03-13T14:02:51.394Z,1.25
2023-03-13T14:05:23.399Z,1.45
2023-03-13T14:07:58.704Z,1.27
2023-03-13T14:13:02.318Z,1.13
2023-03-13T14:15:32.621Z,0.85
2023-03-13T14:18:12.217Z,1.40
2023-03-13T14:20:54.031Z,1.30
2023-03-13T14:23:35.846Z,0.82
2023-03-13T14:26:14.575Z,1.25
2023-03-13T14:28:44.887Z,1.10
2023-03-13T14:31:25.242Z,1.30
2023-03-13T14:33:54.752Z,1.30
2023-03-13T14:36:23.755Z,1.10
2023-03-13T14:38:54.793Z,1.42
2023-03-13T14:41:33.192Z,1.27
2023-03-13T14:44:07.139Z,1.30
2023-03-13T14:46:37.814Z,1.20
2023-03-13T14:49:16.948Z,1.08
2023-03-13T14:51:46.793Z,1.00
2023-03-13T14:54:28.855Z,0.93
2023-03-13T14:57:16.630Z,0.82
2023-03-13T14:59:45.985Z,1.02
2023-03-13T15:02:21.182Z,1.00
2023-03-13T15:07:20.265Z,0.80
2023-03-13T15:09:51.611Z,0.82
2023-03-13T15:12:24.897Z,1.20
2023-03-13T15:14:55.434Z,1.58
2023-03-13T15:17:28.921Z,1.25
2023-03-13T15:20:00.616Z,1.05
2023-03-13T15:22:34.349Z,1.08
2023-03-13T15:25:07.147Z,0.90
2023-03-13T15:27:38.217Z,0.73
2023-03-13T15:30:08.468Z,1.10
2023-03-13T15:32:39.935Z,1.00
2023-03-13T15:35:32.009Z,1.02
2023-03-13T15:38:02.866Z,0.88
2023-03-13T15:40:34.767Z,1.48
2023-03-13T15:43:05.307Z,1.60
2023-03-13T15:45:34.862Z,1.33
2023-03-13T15:48:04.793Z,1.35
2023-03-13T15:50:33.836Z,1.40
2023-03-13T15:53:03.004Z,1.30
2023-03-13T15:55:32.241Z,1.10
2023-03-13T15:58:11.862Z,1.50
2023-03-13T16:00:42.115Z,1.65
2023-03-13T16:03:16.464Z,1.00
2023-03-13T16:05:45.632Z,0.90
2023-03-13T16:08:29.223Z,1.30
2023-03-13T16:11:03.850Z,1.13
2023-03-13T16:13:34.466Z,1.30
2023-03-13T16:16:03.485Z,1.90
2023-03-13T16:18:32.399Z,1.20
2023-03-13T16:21:01.326Z,1.52
2023-03-13T16:23:30.254Z,1.58
2023-03-13T16:25:59.204Z,1.35
2023-03-13T16:28:28.337Z,1.25
2023-03-13T16:30:58.792Z,1.50
2023-03-13T16:33:28.072Z,2.00
2023-03-13T16:35:57.124Z,1.73
2023-03-13T16:38:26.157Z,2.13
2023-03-13T16:40:55.204Z,2.22
2023-03-13T16:43:25.104Z,1.73
2023-03-13T16:45:54.235Z,1.80
2023-03-13T16:48:24.845Z,1.60
2023-03-13T16:50:53.871Z,1.33
2023-03-13T16:53:23.129Z,1.60
2023-03-13T16:55:52.419Z,1.70
2023-03-13T16:58:22.011Z,1.55
2023-03-13T17:01:04.543Z,2.08
2023-03-13T17:03:35.281Z,1.92
2023-03-13T17:06:04.485Z,1.75
2023-03-13T17:08:33.546Z,2.67
2023-03-13T17:11:02.513Z,2.67
2023-03-13T17:13:31.464Z,2.78
2023-03-13T17:16:01.095Z,2.78
2023-03-13T17:18:31.099Z,3.10
2023-03-13T17:21:02.019Z,3.38
2023-03-13T17:23:31.120Z,2.92
2023-03-13T17:26:00.123Z,2.92
2023-03-13T17:28:29.473Z,3.13
2023-03-13T17:30:58.775Z,3.35
2023-03-13T17:33:27.737Z,3.05
2023-03-13T17:35:56.837Z,3.40
2023-03-13T17:38:27.384Z,2.80
2023-03-13T17:40:56.367Z,2.72
2023-03-13T17:43:25.340Z,3.33
2023-03-13T17:45:55.704Z,3.42
2023-03-13T17:48:27.895Z,3.30
2023-03-13T17:50:57.024Z,3.92
2023-03-13T17:53:27.479Z,4.38
2023-03-13T17:55:56.504Z,4.60
2023-03-13T17:58:25.594Z,3.45
2023-03-13T18:00:54.541Z,4.50
2023-03-13T18:03:23.855Z,5.60
2023-03-13T18:05:52.943Z,5.40
2023-03-13T18:08:22.853Z,5.57
2023-03-13T18:10:53.618Z,6.40
2023-03-13T18:13:22.651Z,7.05
2023-03-13T18:15:51.680Z,6.25
2023-03-13T18:18:20.733Z,6.15
2023-03-13T18:20:49.657Z,6.25
2023-03-13T18:23:18.858Z,5.75
2023-03-13T18:25:47.950Z,3.97
2023-03-13T18:28:18.401Z,4.55
2023-03-13T18:30:48.822Z,4.35
2023-03-13T18:33:17.804Z,3.63
2023-03-13T18:35:46.903Z,3.15
2023-03-13T18:38:16.042Z,3.53
2023-03-13T18:40:44.948Z,4.32
2023-03-13T18:43:13.919Z,4.40
2023-03-13T18:45:44.559Z,4.15
2023-03-13T18:48:13.648Z,4.78
2023-03-13T18:50:42.665Z,4.43
2023-03-13T18:53:11.624Z,4.93
2023-03-13T18:55:40.559Z,3.67
2023-03-13T18:58:11.960Z,4.25
2023-03-13T19:00:41.334Z,4.22
2023-03-13T19:03:11.782Z,4.85
2023-03-13T19:05:40.809Z,3.17
2023-03-13T19:08:10.698Z,3.85
2023-03-13T19:10:40.454Z,3.85
2023-03-13T19:13:09.420Z,3.60
2023-03-13T19:15:39.064Z,4.97
2023-03-13T19:18:10.741Z,5.80
2023-03-13T19:20:41.226Z,4.70
2023-03-13T19:23:11.433Z,4.63
2023-03-13T19:25:40.358Z,5.50
2023-03-13T19:28:10.908Z,7.15
2023-03-13T19:30:39.903Z,6.97
2023-03-13T19:33:08.898Z,5.97
2023-03-13T19:35:37.969Z,5.20
2023-03-13T19:38:13.100Z,5.13
2023-03-13T19:40:42.211Z,3.75
2023-03-13T19:43:11.346Z,3.97
2023-03-13T19:45:40.538Z,3.58
2023-03-13T19:48:10.856Z,3.85
2023-03-13T19:50:40.099Z,4.47
2023-03-13T19:53:10.390Z,4.00
2023-03-13T19:55:39.452Z,4.00
2023-03-13T19:58:08.985Z,4.30
2023-03-13T20:00:38.461Z,3.65
2023-03-13T20:03:07.492Z,4.90
2023-03-13T20:05:36.998Z,4.68
2023-03-13T20:08:05.972Z,3.92
2023-03-13T20:10:36.478Z,3.95
2023-03-13T20:13:05.449Z,4.53
2023-03-13T20:15:34.477Z,5.97
2023-03-13T20:18:03.527Z,7.07
2023-03-13T20:20:32.428Z,5.63
2023-03-13T20:23:01.469Z,4.88
2023-03-13T20:25:30.476Z,5.07
2023-03-13T20:28:00.846Z,4.75
2023-03-13T20:30:29.951Z,4.82
2023-03-13T20:33:00.137Z,4.03
2023-03-13T20:35:30.127Z,5.10
2023-03-13T20:38:01.024Z,5.38
2023-03-13T20:40:30.264Z,5.97
2023-03-13T20:43:00.851Z,5.32
2023-03-13T20:45:30.804Z,6.03
2023-03-13T20:47:59.965Z,5.30
2023-03-13T20:50:29.157Z,4.60
2023-03-13T20:52:58.240Z,5.88
2023-03-13T20:55:27.185Z,5.18
2023-03-13T20:57:56.189Z,4.20
2023-03-13T21:00:27.988Z,4.20
2023-03-13T21:02:56.985Z,3.28
2023-03-13T21:05:25.999Z,3.53
2023-03-13T21:07:55.411Z,3.13
2023-03-13T21:10:24.799Z,4.28
2023-03-13T21:12:53.853Z,3.85
2023-03-13T21:15:22.821Z,2.95
2023-03-13T21:17:53.874Z,2.75
2023-03-13T21:20:22.896Z,3.72
2023-03-13T21:22:52.208Z,3.65
2023-03-13T21:25:21.648Z,4.15
2023-03-13T21:27:50.549Z,3.70
2023-03-13T21:30:22.404Z,4.03
2023-03-13T21:32:54.642Z,3.38
2023-03-13T21:35:23.772Z,3.40
2023-03-13T21:37:52.868Z,3.45
2023-03-13T21:40:22.122Z,3.50
2023-03-13T21:42:51.054Z,4.30
2023-03-13T21:45:20.100Z,4.20
2023-03-13T21:47:49.080Z,4.10
2023-03-13T21:52:50.080Z,3.30
2023-03-13T21:55:19.281Z,3.45
2023-03-13T21:57:48.321Z,4.05
2023-03-13T22:00:17.601Z,3.25
2023-03-13T22:02:46.718Z,3.65
2023-03-13T22:05:15.824Z,3.75
2023-03-13T22:07:46.592Z,3.65
2023-03-13T22:10:15.631Z,3.50
2023-03-13T22:12:44.556Z,2.90
2023-03-13T22:15:13.492Z,3.08
2023-03-13T22:17:42.625Z,3.28
2023-03-13T22:20:13.220Z,3.33
2023-03-13T22:22:42.108Z,2.67
2023-03-13T22:25:12.675Z,3.22
2023-03-13T22:27:41.642Z,3.17
2023-03-13T22:39:32.694Z,2.50
2023-03-13T22:42:03.244Z,2.38
2023-03-13T22:44:32.336Z,2.35
2023-03-13T22:47:01.303Z,2.17
2023-03-13T22:49:30.624Z,2.10
2023-03-13T22:52:00.226Z,2.38
2023-03-13T22:54:29.226Z,2.70
2023-03-13T22:56:58.200Z,2.58
2023-03-13T22:59:28.678Z,2.40
2023-03-13T23:01:57.694Z,1.98
2023-03-13T23:04:26.736Z,2.55
2023-03-13T23:06:55.815Z,2.30
2023-03-13T23:09:24.768Z,2.95
2023-03-13T23:11:54.014Z,2.00
2023-03-13T23:14:23.829Z,2.10
2023-03-13T23:16:54.411Z,3.10
2023-03-13T23:19:23.907Z,2.00
2023-03-13T23:21:53.029Z,2.53
2023-03-13T23:24:22.045Z,2.70
2023-03-13T23:26:50.979Z,2.58
2023-03-13T23:29:19.963Z,2.95
2023-03-13T23:31:49.080Z,3.03
2023-03-13T23:34:22.320Z,3.20
2023-03-13T23:36:51.444Z,3.00
2023-03-13T23:39:20.402Z,3.90
2023-03-13T23:41:49.472Z,3.25
2023-03-13T23:44:18.445Z,2.80
2023-03-13T23:46:47.373Z,3.10
2023-03-13T23:49:18.215Z,2.63
2023-03-13T23:51:47.275Z,3.10
2023-03-13T23:54:16.329Z,2.85
2023-03-13T23:56:45.412Z,3.10
2023-03-13T23:59:14.328Z,3.05
